createdAt,value
2024-02-06T00:00:35.259Z,4.30
2024-02-06T00:03:03.345Z,4.30
2024-02-06T00:05:31.785Z,4.20
2024-02-06T00:07:59.230Z,4.20
2024-02-06T00:10:28.911Z,4.10
2024-02-06T00:12:56.929Z,4.00
2024-02-06T00:15:24.909Z,4.00
2024-02-06T00:17:52.882Z,4.00
2024-02-06T00:20:21.398Z,3.90
2024-02-06T00:22:50.079Z,3.90
2024-02-06T00:25:18.320Z,3.90
2024-02-06T00:27:48.124Z,3.90
2024-02-06T00:30:16.400Z,3.90
2024-02-06T00:32:45.008Z,3.90
2024-02-06T00:35:13.773Z,3.90
2024-02-06T00:37:42.265Z,4.00
2024-02-06T00:40:11.580Z,4.00
2024-02-06T00:42:39.510Z,4.10
2024-02-06T00:45:09.825Z,4.10
2024-02-06T00:47:37.962Z,4.10
2024-02-06T00:50:07.610Z,4.20
2024-02-06T00:52:36.623Z,4.20
2024-02-06T00:55:04.963Z,4.20
2024-02-06T00:57:32.897Z,4.20
2024-02-06T01:00:00.820Z,4.20
2024-02-06T01:02:31.091Z,4.20
2024-02-06T01:04:59.151Z,4.30
2024-02-06T01:07:28.097Z,4.30
2024-02-06T01:09:56.618Z,4.40
2024-02-06T01:12:25.467Z,4.40
2024-02-06T01:14:53.403Z,4.40
2024-02-06T01:17:21.379Z,4.40
2024-02-06T01:19:51.074Z,4.40
2024-02-06T01:22:19.120Z,4.40
2024-02-06T01:24:47.571Z,4.40
2024-02-06T01:27:15.599Z,4.40
2024-02-06T01:29:44.010Z,4.40
2024-02-06T01:32:11.959Z,4.50
2024-02-06T01:34:43.317Z,4.40
2024-02-06T01:37:12.672Z,4.40
2024-02-06T01:39:40.693Z,4.30
2024-02-06T01:42:08.822Z,4.20
2024-02-06T01:44:36.728Z,4.00
2024-02-06T01:47:05.087Z,3.90
2024-02-06T01:49:33.741Z,3.80
2024-02-06T01:52:02.606Z,3.70
2024-02-06T01:54:32.930Z,3.70
2024-02-06T01:57:00.961Z,3.60
2024-02-06T01:59:29.150Z,3.60
2024-02-06T02:01:57.803Z,3.50
2024-02-06T02:04:26.095Z,3.50
2024-02-06T02:06:55.702Z,3.40
2024-02-06T02:09:24.066Z,3.40
2024-02-06T02:11:53.399Z,3.30
2024-02-06T02:14:21.764Z,3.20
2024-02-06T02:16:49.671Z,3.10
2024-02-06T02:19:17.776Z,3.20
2024-02-06T02:21:47.129Z,3.30
2024-02-06T02:24:15.301Z,3.40
2024-02-06T02:26:44.141Z,3.60
2024-02-06T02:29:12.831Z,3.80
2024-02-06T02:31:41.139Z,3.90
2024-02-06T02:34:10.676Z,3.90
2024-02-06T02:36:40.775Z,3.70
2024-02-06T02:39:10.720Z,3.40
2024-02-06T02:41:38.795Z,3.30
2024-02-06T02:44:08.270Z,3.30
2024-02-06T02:46:36.319Z,3.40
2024-02-06T02:49:05.597Z,3.40
2024-02-06T02:51:34.103Z,3.30
2024-02-06T02:54:02.109Z,3.40
2024-02-06T02:56:31.680Z,3.40
2024-02-06T02:58:59.668Z,3.50
2024-02-06T03:01:27.761Z,3.50
2024-02-06T03:03:55.876Z,3.40
2024-02-06T03:06:23.990Z,3.50
2024-02-06T03:08:52.072Z,3.50
2024-02-06T03:11:20.019Z,3.40
2024-02-06T03:13:49.626Z,3.50
2024-02-06T03:16:17.696Z,3.50
2024-02-06T03:18:45.662Z,3.60
2024-02-06T03:21:14.016Z,3.60
2024-02-06T03:23:42.504Z,3.70
2024-02-06T03:26:10.557Z,3.70
2024-02-06T03:28:38.623Z,3.60
2024-02-06T03:31:08.799Z,3.60
2024-02-06T03:33:37.590Z,3.60
2024-02-06T03:36:06.553Z,3.50
2024-02-06T03:38:35.697Z,3.60
2024-02-06T03:41:04.827Z,3.70
2024-02-06T03:43:32.993Z,3.60
2024-02-06T03:46:01.068Z,3.60
2024-02-06T03:48:32.442Z,3.70
2024-02-06T03:51:00.505Z,3.70
2024-02-06T03:53:28.422Z,3.60
2024-02-06T03:55:56.559Z,3.60
2024-02-06T03:58:25.270Z,3.60
2024-02-06T04:00:53.380Z,3.60
2024-02-06T04:03:21.813Z,3.60
2024-02-06T04:05:51.786Z,3.70
2024-02-06T04:08:19.823Z,3.80
2024-02-06T04:10:48.337Z,3.80
2024-02-06T04:13:16.471Z,3.70
2024-02-06T04:15:44.585Z,3.60
2024-02-06T04:18:12.677Z,3.70
2024-02-06T04:20:41.056Z,3.70
2024-02-06T04:23:10.388Z,3.80
2024-02-06T04:25:39.029Z,3.90
2024-02-06T04:28:07.823Z,3.80
2024-02-06T04:30:36.210Z,3.90
2024-02-06T04:33:05.230Z,4.00
2024-02-06T04:35:33.087Z,4.00
2024-02-06T04:38:01.440Z,4.00
2024-02-06T04:40:30.853Z,4.00
2024-02-06T04:42:59.439Z,4.00
2024-02-06T04:45:27.538Z,3.90
2024-02-06T04:47:55.622Z,3.90
2024-02-06T04:50:23.631Z,3.90
2024-02-06T04:52:52.155Z,3.90
2024-02-06T04:55:20.399Z,3.90
2024-02-06T04:57:49.728Z,3.90
2024-02-06T05:00:18.461Z,4.00
2024-02-06T05:02:46.739Z,4.00
2024-02-06T05:05:15.838Z,3.90
2024-02-06T05:07:44.482Z,3.90
2024-02-06T05:10:13.191Z,3.90
2024-02-06T05:12:41.611Z,3.80
2024-02-06T05:15:11.447Z,3.80
2024-02-06T05:17:42.416Z,3.70
2024-02-06T05:20:11.912Z,3.70
2024-02-06T05:22:40.568Z,3.60
2024-02-06T05:25:09.923Z,3.60
2024-02-06T05:27:38.367Z,3.70
2024-02-06T05:30:07.450Z,3.60
2024-02-06T05:32:38.391Z,3.60
2024-02-06T05:35:07.768Z,3.60
2024-02-06T05:37:35.904Z,3.60
2024-02-06T05:40:07.118Z,3.60
2024-02-06T05:42:35.100Z,3.60
2024-02-06T05:45:03.301Z,3.50
2024-02-06T05:47:32.023Z,3.50
2024-02-06T05:50:02.810Z,3.50
2024-02-06T05:52:30.789Z,3.60
2024-02-06T05:54:58.983Z,3.50
2024-02-06T05:57:28.012Z,3.50
2024-02-06T05:59:56.023Z,3.50
2024-02-06T06:02:24.068Z,3.50
2024-02-06T06:04:52.661Z,3.40
2024-02-06T06:07:22.309Z,3.30
2024-02-06T06:09:50.443Z,3.30
2024-02-06T06:12:18.824Z,3.30
2024-02-06T06:14:46.772Z,3.20
2024-02-06T06:17:14.753Z,3.20
2024-02-06T06:19:44.448Z,3.20
2024-02-06T06:22:13.302Z,3.20
2024-02-06T06:24:42.710Z,3.20
2024-02-06T06:27:11.165Z,3.20
2024-02-06T06:29:40.168Z,3.10
2024-02-06T06:32:08.593Z,3.10
2024-02-06T06:34:36.741Z,3.20
2024-02-06T06:37:04.947Z,3.10
2024-02-06T06:39:33.816Z,3.10
2024-02-06T06:42:03.109Z,3.20
2024-02-06T06:44:32.218Z,3.20
2024-02-06T06:47:00.163Z,3.10
2024-02-06T06:49:29.127Z,3.10
2024-02-06T06:51:57.219Z,3.10
2024-02-06T06:54:25.453Z,3.00
2024-02-06T06:56:53.423Z,3.10
2024-02-06T06:59:22.698Z,3.00
2024-02-06T07:01:51.090Z,3.10
2024-02-06T07:04:20.101Z,3.00
2024-02-06T07:06:48.605Z,3.00
2024-02-06T07:09:17.459Z,3.10
2024-02-06T07:11:45.504Z,3.20
2024-02-06T07:14:13.629Z,3.20
2024-02-06T07:16:44.137Z,3.30
2024-02-06T07:19:13.163Z,3.30
2024-02-06T07:21:41.542Z,3.40
2024-02-06T07:24:09.968Z,3.40
2024-02-06T07:26:40.066Z,3.60
2024-02-06T07:29:08.668Z,3.60
2024-02-06T07:31:36.644Z,3.70
2024-02-06T07:34:06.667Z,3.80
2024-02-06T07:36:35.279Z,3.90
2024-02-06T07:39:04.828Z,4.00
2024-02-06T07:41:33.133Z,4.10
2024-02-06T07:44:02.287Z,4.10
2024-02-06T07:46:30.576Z,4.20
2024-02-06T07:48:58.734Z,4.20
2024-02-06T07:51:28.517Z,4.30
2024-02-06T07:53:57.474Z,4.30
2024-02-06T07:56:25.713Z,4.40
2024-02-06T07:58:54.409Z,4.40
2024-02-06T08:01:22.503Z,4.40
2024-02-06T08:03:51.697Z,4.40
2024-02-06T08:06:20.085Z,4.40
2024-02-06T08:08:49.443Z,4.50
2024-02-06T08:11:17.487Z,4.50
2024-02-06T08:13:45.839Z,4.60
2024-02-06T08:16:15.721Z,4.60
2024-02-06T08:18:43.963Z,4.60
2024-02-06T08:21:12.325Z,4.70
2024-02-06T08:23:40.320Z,4.70
2024-02-06T08:26:09.671Z,4.70
2024-02-06T08:28:37.951Z,4.70
2024-02-06T08:31:06.215Z,4.80
2024-02-06T08:33:35.225Z,4.80
2024-02-06T08:36:03.310Z,4.90
2024-02-06T08:38:32.322Z,4.90
2024-02-06T08:41:00.443Z,5.00
2024-02-06T08:43:42.248Z,5.10
2024-02-06T08:46:17.484Z,5.10
2024-02-06T08:48:45.478Z,5.10
2024-02-06T08:51:13.589Z,5.20
2024-02-06T08:53:42.083Z,5.30
2024-02-06T08:56:10.066Z,5.40
2024-02-06T08:58:40.258Z,5.60
2024-02-06T09:01:09.460Z,5.80
2024-02-06T09:03:38.274Z,5.90
2024-02-06T09:06:07.006Z,6.00
2024-02-06T09:08:37.237Z,6.10
2024-02-06T09:11:05.540Z,6.20
2024-02-06T09:13:33.736Z,6.30
2024-02-06T09:16:03.764Z,6.40
2024-02-06T09:18:32.127Z,6.40
2024-02-06T09:21:00.298Z,6.50
2024-02-06T09:23:28.221Z,6.50
2024-02-06T09:25:56.335Z,6.50
2024-02-06T09:28:24.697Z,6.50
2024-02-06T09:30:52.826Z,6.50
2024-02-06T09:33:22.181Z,6.60
2024-02-06T09:35:50.243Z,6.60
2024-02-06T09:38:19.251Z,6.70
2024-02-06T09:40:48.835Z,6.70
2024-02-06T09:43:17.567Z,6.80
2024-02-06T09:45:46.388Z,6.90
2024-02-06T09:48:15.078Z,6.90
2024-02-06T09:50:45.707Z,7.00
2024-02-06T09:53:14.579Z,7.10
2024-02-06T09:55:43.564Z,7.10
2024-02-06T09:58:12.683Z,7.10
2024-02-06T10:00:42.566Z,7.20
2024-02-06T10:03:14.972Z,7.30
2024-02-06T10:05:45.369Z,7.30
2024-02-06T10:08:15.762Z,7.40
2024-02-06T10:10:47.625Z,7.50
2024-02-06T10:13:16.406Z,7.60
2024-02-06T10:15:44.377Z,7.60
2024-02-06T10:18:12.515Z,7.50
2024-02-06T10:20:46.625Z,7.50
2024-02-06T10:23:16.747Z,7.50
2024-02-06T10:25:46.163Z,7.60
2024-02-06T10:28:22.119Z,7.60
2024-02-06T10:30:50.167Z,7.70
2024-02-06T10:33:18.888Z,7.60
2024-02-06T10:35:48.353Z,7.50
2024-02-06T10:38:17.259Z,7.70
2024-02-06T10:40:48.762Z,7.90
2024-02-06T10:45:59.286Z,7.90
2024-02-06T10:48:27.695Z,8.00
2024-02-06T10:51:01.613Z,8.10
2024-02-06T10:53:30.607Z,7.90
2024-02-06T10:56:06.228Z,7.90
2024-02-06T10:58:40.816Z,7.90
2024-02-06T11:01:10.153Z,8.00
2024-02-06T11:03:47.308Z,7.90
2024-02-06T11:06:27.504Z,8.00
2024-02-06T11:08:58.133Z,8.10
2024-02-06T11:11:27.088Z,8.00
2024-02-06T11:13:57.567Z,7.90
2024-02-06T11:16:27.987Z,7.80
2024-02-06T11:19:05.002Z,7.90
2024-02-06T11:21:41.075Z,7.80
2024-02-06T11:24:09.519Z,7.90
2024-02-06T11:26:40.829Z,8.00
2024-02-06T11:29:09.290Z,8.10
2024-02-06T11:31:38.822Z,8.00
2024-02-06T11:34:15.027Z,7.90
2024-02-06T11:36:44.602Z,7.70
2024-02-06T11:39:13.846Z,7.80
2024-02-06T11:41:42.092Z,7.90
2024-02-06T11:44:11.463Z,8.10
2024-02-06T11:46:43.840Z,8.30
2024-02-06T11:49:12.162Z,8.30
2024-02-06T11:51:40.563Z,8.40
2024-02-06T11:54:14.423Z,8.80
2024-02-06T11:56:43.134Z,9.00
2024-02-06T11:59:12.645Z,9.20
2024-02-06T12:01:43.535Z,9.30
2024-02-06T12:04:13.095Z,9.30
2024-02-06T12:06:41.235Z,9.40
2024-02-06T12:09:10.968Z,9.40
2024-02-06T12:11:43.758Z,9.60
2024-02-06T12:14:12.953Z,9.80
2024-02-06T12:16:42.079Z,9.70
2024-02-06T12:19:11.611Z,9.70
2024-02-06T12:21:40.966Z,9.60
2024-02-06T12:24:10.320Z,9.70
2024-02-06T12:26:38.330Z,9.70
2024-02-06T12:29:08.846Z,9.70
2024-02-06T12:31:38.368Z,9.70
2024-02-06T12:34:08.286Z,9.70
2024-02-06T12:36:37.621Z,9.80
2024-02-06T12:39:14.036Z,9.80
2024-02-06T12:41:42.383Z,9.80
2024-02-06T12:44:14.324Z,9.90
2024-02-06T12:46:44.065Z,9.80
2024-02-06T12:49:13.507Z,9.90
2024-02-06T12:51:42.134Z,9.80
2024-02-06T12:54:10.160Z,9.80
2024-02-06T12:56:38.170Z,9.80
2024-02-06T12:59:16.490Z,9.80
2024-02-06T13:01:53.714Z,9.80
2024-02-06T13:04:26.883Z,9.80
2024-02-06T13:06:55.594Z,9.80
2024-02-06T13:09:28.283Z,9.80
2024-02-06T13:11:56.394Z,9.90
2024-02-06T13:14:24.505Z,9.80
2024-02-06T13:16:55.068Z,9.80
2024-02-06T13:19:29.545Z,9.80
2024-02-06T13:21:57.975Z,9.70
2024-02-06T13:24:26.309Z,9.70
2024-02-06T13:26:54.371Z,9.70
2024-02-06T13:29:22.411Z,9.70
2024-02-06T13:31:50.467Z,9.70
2024-02-06T13:34:20.463Z,9.60
2024-02-06T13:36:48.699Z,9.60
2024-02-06T13:39:16.652Z,9.60
2024-02-06T13:41:46.298Z,9.60
2024-02-06T13:44:14.537Z,9.60
2024-02-06T13:46:42.694Z,9.60
2024-02-06T13:49:10.799Z,9.60
2024-02-06T13:51:40.224Z,9.60
2024-02-06T13:54:08.391Z,9.60
2024-02-06T13:56:36.349Z,9.60
2024-02-06T13:59:04.609Z,9.60
2024-02-06T14:01:32.630Z,9.70
2024-02-06T14:04:01.161Z,9.70
2024-02-06T14:06:29.163Z,9.70
2024-02-06T14:08:58.853Z,9.70
2024-02-06T14:11:28.642Z,9.70
2024-02-06T14:13:56.623Z,9.70
2024-02-06T14:16:25.951Z,9.70
2024-02-06T14:18:54.104Z,9.70
2024-02-06T14:21:22.381Z,9.70
2024-02-06T14:23:50.985Z,9.60
2024-02-06T14:26:20.233Z,9.70
2024-02-06T14:28:48.278Z,9.60
2024-02-06T14:31:16.300Z,9.60
2024-02-06T14:33:45.006Z,9.70
2024-02-06T14:36:13.776Z,9.60
2024-02-06T14:38:41.777Z,9.70
2024-02-06T14:41:09.894Z,9.60
2024-02-06T14:43:39.214Z,9.60
2024-02-06T14:46:07.613Z,9.60
2024-02-06T14:48:36.040Z,9.60
2024-02-06T14:51:06.559Z,9.60
2024-02-06T14:53:34.856Z,9.50
2024-02-06T14:56:03.573Z,9.60
2024-02-06T14:58:31.833Z,9.60
2024-02-06T15:01:01.830Z,9.50
2024-02-06T15:03:30.140Z,9.50
2024-02-06T15:05:58.221Z,9.40
2024-02-06T15:08:26.364Z,9.40
2024-02-06T15:10:54.892Z,9.30
2024-02-06T15:13:22.884Z,9.30
2024-02-06T15:15:50.993Z,9.20
2024-02-06T15:18:20.478Z,9.30
2024-02-06T15:20:50.126Z,9.20
2024-02-06T15:23:18.764Z,9.20
2024-02-06T15:25:46.833Z,9.20
2024-02-06T15:28:15.999Z,9.10
2024-02-06T15:30:44.508Z,9.10
2024-02-06T15:33:13.369Z,9.10
2024-02-06T15:35:44.759Z,9.10
2024-02-06T15:38:13.923Z,9.00
2024-02-06T15:40:41.975Z,9.00
2024-02-06T15:43:10.329Z,9.00
2024-02-06T15:45:39.066Z,8.90
2024-02-06T15:48:07.497Z,8.80
2024-02-06T15:50:36.384Z,8.70
2024-02-06T15:53:05.919Z,8.60
2024-02-06T15:55:33.928Z,8.60
2024-02-06T15:58:01.968Z,8.50
2024-02-06T16:00:30.720Z,8.50
2024-02-06T16:03:03.629Z,8.40
2024-02-06T16:05:31.714Z,8.40
2024-02-06T16:08:00.515Z,8.30
2024-02-06T16:10:29.988Z,8.20
2024-02-06T16:12:57.993Z,8.20
2024-02-06T16:15:25.933Z,8.10
2024-02-06T16:17:53.961Z,8.10
2024-02-06T16:20:22.612Z,8.00
2024-02-06T16:22:50.848Z,8.00
2024-02-06T16:25:23.008Z,7.90
2024-02-06T16:27:54.881Z,7.80
2024-02-06T16:30:22.971Z,7.80
2024-02-06T16:32:51.048Z,7.70
2024-02-06T16:35:20.058Z,7.70
2024-02-06T16:37:48.130Z,7.70
2024-02-06T16:40:16.831Z,7.60
2024-02-06T16:42:47.134Z,7.50
2024-02-06T16:45:16.623Z,7.50
2024-02-06T16:47:45.318Z,7.50
2024-02-06T16:50:17.984Z,7.50
2024-02-06T16:52:46.982Z,7.50
2024-02-06T16:55:16.791Z,7.50
2024-02-06T16:57:46.824Z,7.50
2024-02-06T17:00:17.290Z,7.40
2024-02-06T17:02:45.233Z,7.50
2024-02-06T17:05:18.626Z,7.50
2024-02-06T17:07:47.172Z,7.30
2024-02-06T17:10:17.718Z,7.30
2024-02-06T17:12:48.747Z,7.30
2024-02-06T17:15:19.101Z,7.30
2024-02-06T17:17:47.142Z,7.20
2024-02-06T17:20:15.786Z,7.10
2024-02-06T17:22:44.564Z,7.10
2024-02-06T17:25:12.663Z,7.00
2024-02-06T17:27:41.704Z,7.00
2024-02-06T17:30:10.545Z,7.10
2024-02-06T17:32:40.004Z,7.10
2024-02-06T17:35:09.093Z,7.10
2024-02-06T17:37:37.251Z,7.10
2024-02-06T17:40:06.134Z,7.10
2024-02-06T17:42:34.077Z,7.20
2024-02-06T17:45:06.775Z,7.30
2024-02-06T17:47:37.379Z,7.30
2024-02-06T17:50:09.863Z,7.30
2024-02-06T17:52:38.202Z,7.30
2024-02-06T17:55:07.229Z,7.30
2024-02-06T17:57:35.228Z,7.20
2024-02-06T18:00:03.182Z,7.30
2024-02-06T18:02:47.183Z,7.30
2024-02-06T18:05:25.990Z,7.30
2024-02-06T18:07:54.410Z,7.20
2024-02-06T18:10:22.910Z,7.20
2024-02-06T18:12:53.731Z,7.20
2024-02-06T18:15:21.952Z,7.20
2024-02-06T18:17:50.743Z,7.20
2024-02-06T18:20:19.113Z,7.20
2024-02-06T18:22:49.755Z,7.20
2024-02-06T18:25:18.136Z,7.20
2024-02-06T18:27:46.124Z,7.10
2024-02-06T18:30:16.982Z,7.00
2024-02-06T18:32:45.292Z,6.90
2024-02-06T18:35:13.520Z,6.90
2024-02-06T18:37:41.715Z,6.90
2024-02-06T18:40:12.879Z,6.80
2024-02-06T18:42:40.986Z,6.80
2024-02-06T18:45:10.496Z,6.90
2024-02-06T18:47:38.511Z,6.90
2024-02-06T18:50:07.353Z,6.80
2024-02-06T18:52:37.962Z,6.80
2024-02-06T18:55:12.292Z,6.80
2024-02-06T18:57:43.439Z,6.70
2024-02-06T19:00:13.519Z,6.60
2024-02-06T19:02:41.537Z,6.50
2024-02-06T19:05:11.250Z,6.50
2024-02-06T19:07:39.659Z,6.40
2024-02-06T19:10:09.078Z,6.30
2024-02-06T19:12:38.502Z,6.20
2024-02-06T19:15:08.026Z,6.20
2024-02-06T19:17:36.241Z,6.10
2024-02-06T19:20:04.585Z,6.00
2024-02-06T19:22:33.414Z,6.00
2024-02-06T19:25:03.278Z,5.90
2024-02-06T19:27:31.268Z,5.90
2024-02-06T19:30:00.800Z,5.90
2024-02-06T19:32:28.788Z,5.90
2024-02-06T19:34:56.761Z,5.90
2024-02-06T19:37:24.848Z,5.90
2024-02-06T19:39:53.111Z,5.90
2024-02-06T19:42:21.094Z,5.80
2024-02-06T19:44:50.554Z,5.70
2024-02-06T19:47:19.835Z,5.60
2024-02-06T19:49:48.013Z,5.60
2024-02-06T19:52:17.220Z,5.60
2024-02-06T19:54:45.380Z,5.60
2024-02-06T19:57:15.761Z,5.60
2024-02-06T19:59:45.021Z,5.60
2024-02-06T20:02:16.567Z,5.50
2024-02-06T20:04:46.549Z,5.60
2024-02-06T20:07:14.649Z,5.60
2024-02-06T20:09:44.463Z,5.70
2024-02-06T20:12:12.741Z,5.60
2024-02-06T20:14:41.648Z,5.60
2024-02-06T20:17:10.512Z,5.50
2024-02-06T20:19:40.526Z,5.50
2024-02-06T20:22:11.505Z,5.50
2024-02-06T20:24:39.619Z,5.50
2024-02-06T20:27:08.531Z,5.50
2024-02-06T20:29:36.504Z,5.60
2024-02-06T20:32:04.792Z,5.70
2024-02-06T20:34:33.513Z,5.60
2024-02-06T20:37:02.301Z,5.70
2024-02-06T20:39:33.474Z,5.70
2024-02-06T20:42:01.420Z,5.60
2024-02-06T20:44:30.480Z,5.60
2024-02-06T20:46:58.967Z,5.50
2024-02-06T20:49:27.064Z,5.50
2024-02-06T20:51:55.124Z,5.50
2024-02-06T20:54:23.153Z,5.50
2024-02-06T20:56:53.482Z,5.40
2024-02-06T20:59:22.342Z,5.40
2024-02-06T21:01:51.342Z,5.40
2024-02-06T21:04:19.849Z,5.40
2024-02-06T21:06:49.161Z,5.30
2024-02-06T21:09:17.713Z,5.30
2024-02-06T21:11:46.946Z,5.20
2024-02-06T21:14:18.548Z,5.20
2024-02-06T21:16:46.949Z,5.20
2024-02-06T21:19:15.082Z,5.30
2024-02-06T21:21:45.383Z,5.20
2024-02-06T21:24:13.702Z,5.30
2024-02-06T21:26:42.305Z,5.30
2024-02-06T21:29:10.431Z,5.30
2024-02-06T21:31:42.348Z,5.30
2024-02-06T21:34:12.171Z,5.10
2024-02-06T21:36:41.343Z,5.20
2024-02-06T21:39:11.951Z,5.10
2024-02-06T21:41:41.071Z,5.10
2024-02-06T21:44:10.345Z,5.10
2024-02-06T21:46:38.798Z,5.10
2024-02-06T21:49:13.412Z,5.20
2024-02-06T21:51:42.252Z,5.20
2024-02-06T21:54:10.442Z,5.10
2024-02-06T21:56:38.886Z,5.20
2024-02-06T21:59:07.500Z,5.20
2024-02-06T22:01:35.486Z,5.20
2024-02-06T22:04:03.635Z,5.30
2024-02-06T22:06:33.416Z,5.30
2024-02-06T22:09:01.432Z,5.20
2024-02-06T22:11:31.829Z,5.20
2024-02-06T22:13:59.889Z,5.20
2024-02-06T22:16:28.041Z,5.20
2024-02-06T22:18:56.556Z,5.20
2024-02-06T22:21:24.841Z,5.20
2024-02-06T22:23:54.260Z,5.20
2024-02-06T22:26:22.620Z,5.20
2024-02-06T22:28:50.687Z,5.20
2024-02-06T22:31:18.814Z,5.20
2024-02-06T22:33:47.796Z,5.20
2024-02-06T22:36:15.918Z,5.20
2024-02-06T22:38:43.869Z,5.20
2024-02-06T22:41:14.710Z,5.20
2024-02-06T22:43:45.629Z,5.20
2024-02-06T22:46:14.357Z,5.20
2024-02-06T22:48:42.705Z,5.20
2024-02-06T22:51:10.705Z,5.20
2024-02-06T22:53:39.025Z,5.20
2024-02-06T22:56:07.337Z,5.20
2024-02-06T22:58:36.709Z,5.20
2024-02-06T23:01:05.629Z,5.20
2024-02-06T23:03:33.632Z,5.20
2024-02-06T23:06:01.693Z,5.10
2024-02-06T23:08:30.989Z,5.10
2024-02-06T23:10:59.310Z,5.10
2024-02-06T23:13:27.524Z,5.10
2024-02-06T23:15:56.792Z,5.10
2024-02-06T23:18:24.875Z,5.10
2024-02-06T23:20:52.930Z,5.10
2024-02-06T23:23:21.103Z,5.10
2024-02-06T23:25:49.243Z,5.10
2024-02-06T23:28:17.366Z,5.00
2024-02-06T23:30:45.943Z,4.90
2024-02-06T23:33:15.836Z,4.90
2024-02-06T23:35:44.596Z,4.90
2024-02-06T23:38:12.924Z,4.90
2024-02-06T23:40:40.952Z,4.90
2024-02-06T23:43:09.367Z,5.00
2024-02-06T23:45:37.741Z,5.00
2024-02-06T23:48:08.494Z,4.90
2024-02-06T23:50:38.619Z,4.90
2024-02-06T23:53:07.209Z,4.90
2024-02-06T23:55:35.586Z,4.80
2024-02-06T23:58:03.661Z,4.80
